Bowlus, Minnesota
Current Conditions -  °F | °C
As of 6:57 AM on Tuesday 21 Oct 2014 (Local Time) from KLXL Reporting Station
Clear Clear  
Wind Chill: 37°   Ceiling: Unl
Heat Index: 37°   Visibility: 10mi
Dew Point: 34°   Wind: 3mph
Humidity: 87%   Direction: 100°E
Pressure: 30.16"   Gusts: NA
Location:  45.82°N, 94.41°W
Report Text: KLXL 211157Z AUTO 10003KT 10SM CLR 03/01 A3016 RMK AO2
Loading
Personal Weather Stations






























Interactive Weather Map
Tropical Storm Tracking
New forecast layout! Learn more

10-Day Weather Forecast

Advertisements
Track Severe Weather on mobile